Time;durP1;ratioP1;P1;durP2;ratioP2;P2;SDS_P1;SDS_P2;PMS_P1;PMS_P2;Temp;Humidity;BMP_temperature;BMP_pressure;BME280_temperature;BME280_humidity;BME280_pressure;Samples;Min_cycle;Max_cycle;Signal;HPM_P1;HPM_P2
2023/08/31 00:00:00;;;;;;;9.15;8.25;;;;;;;;;;2072369;28;20625;-90
2023/08/31 00:01:03;;;;;;;10.27;7.50;;;;;;;;;;2072346;28;20614;-91
2023/08/31 00:02:05;;;;;;;10.18;7.53;;;;;;;;;;2072688;28;20407;-90
2023/08/31 00:03:05;;;;;;;10.10;8.18;;;;;;;;;;2072791;28;20067;-90
2023/08/31 00:04:14;;;;;;;10.15;8.10;;;;;;;;;;2072442;28;20475;-90
2023/08/31 00:05:14;;;;;;;9.13;7.90;;;;;;;;;;2072221;28;20136;-90
2023/08/31 00:06:15;;;;;;;10.25;8.38;;;;;;;;;;2071257;28;20121;-91
2023/08/31 00:07:16;;;;;;;11.15;8.02;;;;;;;;;;2071991;28;20061;-90
2023/08/31 00:08:17;;;;;;;8.65;7.57;;;;;;;;;;2071423;28;20535;-90
2023/08/31 00:09:18;;;;;;;11.75;8.27;;;;;;;;;;2071750;28;20096;-90
2023/08/31 00:10:19;;;;;;;11.63;8.18;;;;;;;;;;2079949;28;20029;-90
2023/08/31 00:11:20;;;;;;;9.32;8.23;;;;;;;;;;2082063;28;20041;-90
2023/08/31 00:12:22;;;;;;;9.98;7.60;;;;;;;;;;2078699;28;20049;-89
2023/08/31 00:13:22;;;;;;;8.95;7.90;;;;;;;;;;2074394;28;20025;-90
2023/08/31 00:14:24;;;;;;;8.65;7.72;;;;;;;;;;2074810;28;20133;-90
2023/08/31 00:15:24;;;;;;;11.57;8.43;;;;;;;;;;2071391;28;20071;-90
2023/08/31 00:16:27;;;;;;;8.35;7.45;;;;;;;;;;2071526;28;20483;-90
2023/08/31 00:17:29;;;;;;;13.07;8.88;;;;;;;;;;2072593;28;20125;-90
2023/08/31 00:18:29;;;;;;;9.60;8.10;;;;;;;;;;2072295;28;20120;-91
2023/08/31 00:19:30;;;;;;;11.02;8.48;;;;;;;;;;2071538;28;20431;-90
2023/08/31 00:20:33;;;;;;;11.20;8.00;;;;;;;;;;2071412;28;20079;-90
2023/08/31 00:21:33;;;;;;;9.27;7.97;;;;;;;;;;2071997;28;20133;-90
2023/08/31 00:22:33;;;;;;;10.77;7.47;;;;;;;;;;2088161;28;20056;-90
2023/08/31 00:23:34;;;;;;;9.43;8.27;;;;;;;;;;2087075;28;20032;-90
2023/08/31 00:24:36;;;;;;;8.90;8.00;;;;;;;;;;2079053;28;20077;-90
2023/08/31 00:25:37;;;;;;;8.55;7.60;;;;;;;;;;2080039;28;20061;-88
2023/08/31 00:26:43;;;;;;;10.18;7.88;;;;;;;;;;2074906;28;20133;-90
2023/08/31 00:27:48;;;;;;;8.60;7.65;;;;;;;;;;2072608;28;20091;-90
2023/08/31 00:28:48;;;;;;;11.73;8.13;;;;;;;;;;2072516;28;20039;-90
2023/08/31 00:29:49;;;;;;;10.00;7.88;;;;;;;;;;2071562;28;20046;-90
2023/08/31 00:30:50;;;;;;;11.07;8.00;;;;;;;;;;2071442;28;20042;-90
2023/08/31 00:31:51;;;;;;;9.77;7.95;;;;;;;;;;2079495;28;20053;-90
2023/08/31 00:32:53;;;;;;;11.07;8.43;;;;;;;;;;2087805;28;20045;-90
2023/08/31 00:33:53;;;;;;;10.88;7.43;;;;;;;;;;2079234;28;20045;-90
2023/08/31 00:34:54;;;;;;;8.50;7.10;;;;;;;;;;2071522;28;20140;-90
2023/08/31 00:35:56;;;;;;;10.68;8.07;;;;;;;;;;2088310;28;20083;-90
2023/08/31 00:36:56;;;;;;;14.90;8.35;;;;;;;;;;2087550;28;20476;-89
2023/08/31 00:37:58;;;;;;;9.52;7.90;;;;;;;;;;2071454;28;20081;-90
2023/08/31 00:39:05;;;;;;;10.20;8.10;;;;;;;;;;2071662;28;20052;-89
2023/08/31 00:40:08;;;;;;;11.13;8.10;;;;;;;;;;2080373;28;20115;-89
2023/08/31 00:41:09;;;;;;;12.27;8.15;;;;;;;;;;2086507;28;20080;-89
2023/08/31 00:42:09;;;;;;;10.32;7.90;;;;;;;;;;2072578;28;20036;-89
2023/08/31 00:43:10;;;;;;;9.35;7.53;;;;;;;;;;2080341;28;20029;-89
2023/08/31 00:44:11;;;;;;;12.60;8.15;;;;;;;;;;2080084;28;20034;-90
2023/08/31 00:45:11;;;;;;;11.18;8.30;;;;;;;;;;2080033;28;20045;-90
2023/08/31 00:46:11;;;;;;;11.85;7.40;;;;;;;;;;2079386;28;20033;-90
2023/08/31 00:47:15;;;;;;;9.93;8.10;;;;;;;;;;2071162;28;20108;-91
2023/08/31 00:48:17;;;;;;;10.02;7.65;;;;;;;;;;2071266;28;20081;-89
2023/08/31 00:49:18;;;;;;;9.48;7.90;;;;;;;;;;2070967;28;20038;-89
2023/08/31 00:50:19;;;;;;;10.10;8.15;;;;;;;;;;2071402;28;20430;-89
2023/08/31 00:51:19;;;;;;;12.30;7.75;;;;;;;;;;2080467;28;20029;-89
2023/08/31 00:52:20;;;;;;;11.93;7.85;;;;;;;;;;2080297;28;20080;-89
2023/08/31 00:53:21;;;;;;;10.35;7.90;;;;;;;;;;2087578;28;20037;-89
2023/08/31 00:54:21;;;;;;;8.60;7.50;;;;;;;;;;2087547;28;20032;-89
2023/08/31 00:55:23;;;;;;;10.88;7.97;;;;;;;;;;2080223;28;20537;-90
2023/08/31 00:56:23;;;;;;;11.05;8.95;;;;;;;;;;2071488;28;20116;-89
2023/08/31 00:57:26;;;;;;;9.85;7.50;;;;;;;;;;2071506;28;20403;-91
2023/08/31 00:58:26;;;;;;;9.52;7.53;;;;;;;;;;2077026;28;20046;-86
2023/08/31 00:59:27;;;;;;;8.93;7.22;;;;;;;;;;2078941;28;20065;-87
2023/08/31 01:00:39;;;;;;;9.68;7.30;;;;;;;;;;2084237;28;20037;-90
2023/08/31 01:01:47;;;;;;;8.90;7.55;;;;;;;;;;2080298;28;20072;-90
2023/08/31 01:04:27;;;;;;;11.63;8.52;;;;;;;;;;2077684;28;20045;-89
2023/08/31 01:05:44;;;;;;;9.75;7.50;;;;;;;;;;2080126;28;20049;-90
2023/08/31 01:07:30;;;;;;;11.45;7.50;;;;;;;;;;2071047;28;20069;-90
2023/08/31 01:08:39;;;;;;;10.02;8.02;;;;;;;;;;2078044;28;20037;-91
2023/08/31 01:10:00;;;;;;;10.98;8.05;;;;;;;;;;2087656;28;20262;-89
2023/08/31 01:11:12;;;;;;;9.65;7.85;;;;;;;;;;2076594;28;20098;-90
2023/08/31 01:12:20;;;;;;;11.60;8.02;;;;;;;;;;2073109;28;20038;-90
2023/08/31 01:13:24;;;;;;;9.20;7.85;;;;;;;;;;2087873;28;20037;-90
2023/08/31 01:14:31;;;;;;;13.20;8.18;;;;;;;;;;2087277;28;20147;-91
2023/08/31 01:15:32;;;;;;;10.27;8.30;;;;;;;;;;2071418;28;20041;-90
2023/08/31 01:16:33;;;;;;;9.23;8.10;;;;;;;;;;2071374;28;20204;-90
2023/08/31 01:17:42;;;;;;;11.30;8.85;;;;;;;;;;2079515;28;20037;-90
2023/08/31 01:18:43;;;;;;;10.75;7.85;;;;;;;;;;2079799;28;20045;-90
2023/08/31 01:19:52;;;;;;;11.57;8.60;;;;;;;;;;1723529;28;10271168;-90
2023/08/31 01:21:02;;;;;;;10.43;7.68;;;;;;;;;;2071376;28;20038;-90
2023/08/31 01:22:07;;;;;;;10.85;8.63;;;;;;;;;;2071107;28;20104;-90
2023/08/31 01:23:15;;;;;;;9.07;7.90;;;;;;;;;;2072093;28;20041;-91
2023/08/31 01:24:17;;;;;;;11.30;8.13;;;;;;;;;;2080156;28;20048;-90
2023/08/31 01:25:18;;;;;;;9.80;8.18;;;;;;;;;;2079993;28;20534;-91
2023/08/31 01:26:18;;;;;;;13.00;8.88;;;;;;;;;;2080001;28;20224;-90
2023/08/31 01:27:19;;;;;;;9.90;8.32;;;;;;;;;;2079581;28;20125;-90
2023/08/31 01:28:19;;;;;;;13.10;8.40;;;;;;;;;;2079128;28;20163;-90
2023/08/31 01:29:20;;;;;;;10.88;8.27;;;;;;;;;;2079787;28;20041;-90
2023/08/31 01:30:20;;;;;;;11.88;8.40;;;;;;;;;;2071346;28;20570;-90
2023/08/31 01:31:21;;;;;;;9.20;8.15;;;;;;;;;;2070953;28;20045;-90
2023/08/31 01:32:21;;;;;;;11.30;9.05;;;;;;;;;;2079661;28;20037;-90
2023/08/31 01:35:49;;;;;;;9.13;8.07;;;;;;;;;;2080577;28;20515;-91
2023/08/31 01:36:56;;;;;;;12.85;8.65;;;;;;;;;;2071162;28;20048;-91
2023/08/31 01:38:01;;;;;;;9.05;8.10;;;;;;;;;;2071838;28;20113;-90
2023/08/31 01:39:34;;;;;;;11.48;8.77;;;;;;;;;;2070979;28;20543;-90
2023/08/31 01:40:49;;;;;;;9.93;8.38;;;;;;;;;;2067118;28;20802;-90
2023/08/31 01:41:55;;;;;;;9.80;8.63;;;;;;;;;;2073166;28;20045;-90
2023/08/31 01:42:56;;;;;;;11.57;8.68;;;;;;;;;;2079773;28;20052;-90
2023/08/31 01:43:58;;;;;;;10.73;8.90;;;;;;;;;;2071339;28;20030;-90
2023/08/31 01:45:00;;;;;;;9.25;8.25;;;;;;;;;;2076944;28;20041;-90
2023/08/31 01:46:01;;;;;;;9.65;8.25;;;;;;;;;;2079764;28;20070;-88
2023/08/31 01:47:06;;;;;;;13.55;8.93;;;;;;;;;;2079958;28;20418;-90
2023/08/31 01:48:06;;;;;;;9.55;8.13;;;;;;;;;;2070988;28;20399;-91
2023/08/31 01:49:07;;;;;;;13.68;8.48;;;;;;;;;;2071057;28;20161;-90
2023/08/31 01:50:08;;;;;;;9.75;8.40;;;;;;;;;;2062911;28;20031;-90
2023/08/31 01:51:09;;;;;;;10.13;8.07;;;;;;;;;;2071021;28;20065;-90
2023/08/31 01:52:10;;;;;;;10.40;8.82;;;;;;;;;;2080111;28;20132;-90
2023/08/31 01:53:10;;;;;;;14.93;8.35;;;;;;;;;;2081761;28;20117;-88
2023/08/31 01:54:10;;;;;;;10.18;9.07;;;;;;;;;;2080755;28;20061;-90
2023/08/31 01:55:15;;;;;;;10.77;8.57;;;;;;;;;;2088857;28;20091;-90
2023/08/31 01:56:15;;;;;;;11.35;8.77;;;;;;;;;;2080005;28;20129;-90
2023/08/31 01:57:16;;;;;;;10.70;8.68;;;;;;;;;;2072529;28;20317;-90
2023/08/31 01:58:16;;;;;;;9.95;8.63;;;;;;;;;;2072626;28;20041;-90
2023/08/31 01:59:17;;;;;;;11.60;8.52;;;;;;;;;;2064807;28;20038;-90
2023/08/31 02:00:18;;;;;;;10.57;8.48;;;;;;;;;;2064338;28;20116;-90
2023/08/31 02:01:19;;;;;;;13.02;8.43;;;;;;;;;;2072913;28;20466;-90
2023/08/31 02:02:19;;;;;;;10.52;8.23;;;;;;;;;;2072836;28;20171;-90
2023/08/31 02:03:20;;;;;;;11.18;8.43;;;;;;;;;;2080669;28;20503;-90
2023/08/31 02:04:20;;;;;;;12.65;8.52;;;;;;;;;;2080892;28;20123;-90
2023/08/31 02:05:20;;;;;;;10.00;7.85;;;;;;;;;;2072926;28;20105;-90
2023/08/31 02:06:21;;;;;;;12.48;8.65;;;;;;;;;;2072704;28;20500;-90
2023/08/31 02:07:21;;;;;;;10.50;8.25;;;;;;;;;;2064906;28;20129;-90
2023/08/31 02:08:22;;;;;;;10.27;9.05;;;;;;;;;;2073293;28;20104;-90
2023/08/31 02:09:22;;;;;;;12.00;8.40;;;;;;;;;;2080978;28;20040;-90
2023/08/31 02:10:22;;;;;;;12.80;8.55;;;;;;;;;;2080864;28;20491;-90
2023/08/31 02:11:23;;;;;;;10.38;9.00;;;;;;;;;;2072683;28;20033;-90
2023/08/31 02:12:23;;;;;;;10.85;8.90;;;;;;;;;;2072632;28;20069;-90
2023/08/31 02:13:23;;;;;;;11.50;8.82;;;;;;;;;;2072317;28;20048;-90
2023/08/31 02:14:24;;;;;;;11.50;8.45;;;;;;;;;;2072158;28;20526;-90
2023/08/31 02:15:24;;;;;;;13.25;8.18;;;;;;;;;;2073111;28;20050;-90
2023/08/31 02:16:25;;;;;;;13.32;8.70;;;;;;;;;;2073182;28;20042;-91
2023/08/31 02:17:25;;;;;;;10.13;8.23;;;;;;;;;;2072297;28;20046;-90
2023/08/31 02:18:25;;;;;;;12.82;8.32;;;;;;;;;;2072631;28;20052;-90
2023/08/31 02:19:26;;;;;;;10.65;8.75;;;;;;;;;;2080884;28;20120;-90
2023/08/31 02:20:26;;;;;;;11.85;8.57;;;;;;;;;;2073378;28;20124;-91
2023/08/31 02:21:27;;;;;;;9.00;7.90;;;;;;;;;;2072491;28;20054;-90
2023/08/31 02:22:28;;;;;;;10.50;7.88;;;;;;;;;;1718009;28;10254128;-90
2023/08/31 02:23:28;;;;;;;11.52;7.85;;;;;;;;;;2073078;28;20045;-90
2023/08/31 02:24:28;;;;;;;11.18;8.02;;;;;;;;;;2072737;28;20135;-90
2023/08/31 02:25:29;;;;;;;12.30;8.95;;;;;;;;;;2072219;28;20038;-90
2023/08/31 02:26:29;;;;;;;10.52;7.65;;;;;;;;;;2072244;28;20046;-90
2023/08/31 02:27:29;;;;;;;12.57;8.23;;;;;;;;;;2072405;28;20591;-91
2023/08/31 02:28:30;;;;;;;12.10;8.90;;;;;;;;;;2072558;28;20050;-90
2023/08/31 02:29:30;;;;;;;12.05;8.32;;;;;;;;;;2080329;28;20045;-90
2023/08/31 02:30:31;;;;;;;12.00;8.85;;;;;;;;;;2080533;28;20518;-90
2023/08/31 02:31:31;;;;;;;13.30;8.38;;;;;;;;;;2077729;28;20391;-90
2023/08/31 02:32:31;;;;;;;12.43;8.80;;;;;;;;;;2080979;28;20116;-88
2023/08/31 02:33:32;;;;;;;12.50;8.27;;;;;;;;;;2073514;28;20038;-89
2023/08/31 02:34:32;;;;;;;10.10;8.55;;;;;;;;;;2072973;28;20041;-90
2023/08/31 02:35:33;;;;;;;11.45;8.38;;;;;;;;;;2073309;28;20546;-90
2023/08/31 02:36:33;;;;;;;10.85;8.57;;;;;;;;;;2072438;28;20054;-90
2023/08/31 02:37:33;;;;;;;10.25;8.35;;;;;;;;;;2073131;28;20128;-90
2023/08/31 02:38:34;;;;;;;10.70;8.50;;;;;;;;;;2080589;28;20131;-90
2023/08/31 02:39:34;;;;;;;14.15;8.98;;;;;;;;;;2083496;28;20124;-90
2023/08/31 02:40:35;;;;;;;12.00;8.40;;;;;;;;;;2096267;28;20059;-90
2023/08/31 02:41:35;;;;;;;9.52;8.13;;;;;;;;;;2088236;28;20091;-90
2023/08/31 02:42:35;;;;;;;10.05;8.73;;;;;;;;;;2078784;28;20041;-90
2023/08/31 02:43:36;;;;;;;10.63;7.90;;;;;;;;;;2073082;28;20049;-91
2023/08/31 02:44:36;;;;;;;10.25;9.02;;;;;;;;;;2073143;28;20142;-90
2023/08/31 02:45:36;;;;;;;12.43;8.82;;;;;;;;;;2073508;28;20415;-91
2023/08/31 02:46:37;;;;;;;14.85;9.43;;;;;;;;;;2072615;28;20042;-90
2023/08/31 02:47:37;;;;;;;10.82;8.95;;;;;;;;;;2072894;28;20034;-90
2023/08/31 02:48:38;;;;;;;12.30;9.00;;;;;;;;;;2072811;28;20251;-90
2023/08/31 02:49:39;;;;;;;11.73;8.77;;;;;;;;;;2080464;28;20114;-90
2023/08/31 02:50:39;;;;;;;13.68;9.25;;;;;;;;;;2080805;28;20053;-90
2023/08/31 02:51:40;;;;;;;10.35;8.98;;;;;;;;;;2080417;28;20146;-90
2023/08/31 02:52:40;;;;;;;11.82;9.45;;;;;;;;;;2086263;28;20076;-90
2023/08/31 02:53:41;;;;;;;10.10;8.50;;;;;;;;;;2086704;28;20195;-90
2023/08/31 02:54:41;;;;;;;13.40;8.20;;;;;;;;;;2088933;28;20065;-90
2023/08/31 02:55:42;;;;;;;9.95;8.45;;;;;;;;;;2072823;28;20034;-90
2023/08/31 02:56:42;;;;;;;13.10;8.63;;;;;;;;;;2072280;28;20049;-90
2023/08/31 02:57:43;;;;;;;10.68;8.25;;;;;;;;;;2072710;28;20044;-90
2023/08/31 02:58:43;;;;;;;11.00;8.75;;;;;;;;;;2072082;28;20633;-90
2023/08/31 02:59:44;;;;;;;12.88;8.68;;;;;;;;;;2080354;28;20128;-90
2023/08/31 03:00:47;;;;;;;10.68;8.80;;;;;;;;;;2089146;28;20178;-89
2023/08/31 03:01:48;;;;;;;10.00;7.80;;;;;;;;;;2088789;28;20044;-89
2023/08/31 03:02:51;;;;;;;9.43;7.72;;;;;;;;;;2080380;28;20514;-90
2023/08/31 03:03:52;;;;;;;11.00;7.80;;;;;;;;;;2071211;28;20080;-89
2023/08/31 03:04:52;;;;;;;10.07;8.32;;;;;;;;;;2073189;28;20092;-89
2023/08/31 03:05:55;;;;;;;10.95;7.63;;;;;;;;;;2073061;28;20364;-89
2023/08/31 03:06:55;;;;;;;10.82;8.38;;;;;;;;;;2080642;28;20518;-90
2023/08/31 03:07:56;;;;;;;9.27;8.27;;;;;;;;;;2080560;28;20033;-90
2023/08/31 03:08:57;;;;;;;9.93;8.10;;;;;;;;;;2080097;28;20545;-90
2023/08/31 03:09:57;;;;;;;10.00;8.13;;;;;;;;;;2072199;28;20042;-90
2023/08/31 03:10:58;;;;;;;10.65;7.95;;;;;;;;;;2080100;28;20064;-90
2023/08/31 03:11:59;;;;;;;10.57;8.05;;;;;;;;;;2080484;28;20045;-90
2023/08/31 03:12:59;;;;;;;10.48;7.95;;;;;;;;;;2072156;28;20042;-90
2023/08/31 03:14:00;;;;;;;10.32;7.50;;;;;;;;;;2072760;28;20069;-89
2023/08/31 03:15:43;;;;;;;9.63;7.40;;;;;;;;;;2080286;28;20497;-89
2023/08/31 03:16:43;;;;;;;8.80;7.28;;;;;;;;;;2074957;28;20080;-89
2023/08/31 03:17:43;;;;;;;9.65;8.05;;;;;;;;;;2082421;28;20546;-89
2023/08/31 03:18:44;;;;;;;9.88;8.02;;;;;;;;;;2079023;28;20144;-87
2023/08/31 03:19:44;;;;;;;10.13;7.95;;;;;;;;;;2085057;28;20072;-90
2023/08/31 03:20:45;;;;;;;9.25;7.85;;;;;;;;;;2080200;28;20124;-89
2023/08/31 03:21:45;;;;;;;9.18;7.85;;;;;;;;;;2072256;28;20038;-90
2023/08/31 03:22:45;;;;;;;9.63;7.57;;;;;;;;;;2072630;28;20053;-90
2023/08/31 03:23:46;;;;;;;11.55;7.50;;;;;;;;;;2072459;28;20488;-89
2023/08/31 03:24:46;;;;;;;10.63;7.90;;;;;;;;;;2071973;28;20034;-88
2023/08/31 03:25:46;;;;;;;9.82;7.03;;;;;;;;;;2071971;28;20396;-89
2023/08/31 03:26:47;;;;;;;10.88;7.53;;;;;;;;;;2080148;28;20038;-90
2023/08/31 03:27:47;;;;;;;10.38;7.72;;;;;;;;;;2081210;28;20045;-90
2023/08/31 03:28:48;;;;;;;8.65;7.50;;;;;;;;;;2073495;28;20417;-89
2023/08/31 03:29:48;;;;;;;11.18;7.47;;;;;;;;;;2072582;28;20033;-89
2023/08/31 03:30:55;;;;;;;9.80;7.80;;;;;;;;;;2071866;28;20165;-90
2023/08/31 03:31:55;;;;;;;11.20;7.30;;;;;;;;;;2072823;28;20129;-89
2023/08/31 03:32:56;;;;;;;10.68;7.95;;;;;;;;;;2088782;28;20040;-90
2023/08/31 03:33:56;;;;;;;10.57;7.80;;;;;;;;;;2079879;28;20029;-90
2023/08/31 03:34:56;;;;;;;11.80;8.68;;;;;;;;;;2072005;28;20475;-89
2023/08/31 03:36:04;;;;;;;12.35;8.50;;;;;;;;;;2088320;28;20032;-90
2023/08/31 03:37:04;;;;;;;10.40;8.13;;;;;;;;;;2079146;28;20038;-89
2023/08/31 03:38:04;;;;;;;18.23;9.20;;;;;;;;;;2071662;28;20042;-89
2023/08/31 03:39:05;;;;;;;11.50;9.48;;;;;;;;;;2071846;28;20506;-90
2023/08/31 03:40:06;;;;;;;12.80;8.10;;;;;;;;;;2071888;28;20036;-89
2023/08/31 03:41:07;;;;;;;13.13;9.30;;;;;;;;;;2072697;28;20339;-89
2023/08/31 03:42:07;;;;;;;16.15;8.60;;;;;;;;;;2071635;28;20026;-89
2023/08/31 03:43:08;;;;;;;12.15;8.73;;;;;;;;;;2069981;28;20058;-90
2023/08/31 03:44:08;;;;;;;11.13;9.00;;;;;;;;;;2071887;28;20069;-89
2023/08/31 03:45:09;;;;;;;12.27;8.52;;;;;;;;;;2063661;28;20026;-89
2023/08/31 03:46:09;;;;;;;15.80;9.10;;;;;;;;;;2055909;28;20488;-89
2023/08/31 03:47:09;;;;;;;11.02;8.68;;;;;;;;;;2066354;28;20030;-89
2023/08/31 03:48:10;;;;;;;12.60;8.55;;;;;;;;;;2070546;28;20038;-90
2023/08/31 03:49:10;;;;;;;11.88;8.48;;;;;;;;;;2065290;28;20070;-90
2023/08/31 03:50:11;;;;;;;11.70;9.20;;;;;;;;;;2066945;28;20069;-90
2023/08/31 03:51:11;;;;;;;13.02;8.35;;;;;;;;;;2066180;28;20543;-89
2023/08/31 03:52:14;;;;;;;13.05;8.90;;;;;;;;;;2079197;28;20026;-89
2023/08/31 03:53:15;;;;;;;12.88;9.18;;;;;;;;;;2070688;28;20583;-90
2023/08/31 03:54:16;;;;;;;12.18;8.68;;;;;;;;;;2065878;28;20038;-90
2023/08/31 03:55:16;;;;;;;14.38;8.23;;;;;;;;;;2063659;28;20042;-89
2023/08/31 03:56:16;;;;;;;15.65;9.55;;;;;;;;;;2055611;28;20026;-90
2023/08/31 03:57:17;;;;;;;11.77;9.45;;;;;;;;;;2071878;28;20061;-91
2023/08/31 03:58:17;;;;;;;12.88;9.75;;;;;;;;;;2071616;28;20029;-91
2023/08/31 03:59:18;;;;;;;13.15;8.80;;;;;;;;;;2055624;28;20023;-91
2023/08/31 04:00:21;;;;;;;12.82;8.57;;;;;;;;;;2063558;28;20089;-91
2023/08/31 04:01:23;;;;;;;11.27;8.55;;;;;;;;;;2064742;28;20034;-91
2023/08/31 04:02:23;;;;;;;12.98;8.13;;;;;;;;;;2065425;28;20030;-90
2023/08/31 04:03:24;;;;;;;13.38;9.27;;;;;;;;;;2055682;28;20062;-91
2023/08/31 04:04:24;;;;;;;11.60;8.98;;;;;;;;;;2073600;28;20069;-91
2023/08/31 04:05:25;;;;;;;11.93;8.80;;;;;;;;;;2086644;28;20053;-88
2023/08/31 04:06:25;;;;;;;11.50;8.43;;;;;;;;;;2068936;28;20034;-89
2023/08/31 04:07:25;;;;;;;11.60;8.35;;;;;;;;;;2063812;28;20038;-89
2023/08/31 04:08:26;;;;;;;13.32;8.73;;;;;;;;;;2063846;28;20527;-89
2023/08/31 04:09:26;;;;;;;10.02;8.60;;;;;;;;;;2063664;28;20057;-89
2023/08/31 04:10:27;;;;;;;10.30;8.52;;;;;;;;;;2071841;28;20038;-88
2023/08/31 04:11:27;;;;;;;23.25;9.40;;;;;;;;;;2071838;28;20041;-90
2023/08/31 04:12:37;;;;;;;10.60;8.02;;;;;;;;;;2064423;28;20083;-91
2023/08/31 04:13:40;;;;;;;9.68;8.52;;;;;;;;;;2063661;28;20117;-89
2023/08/31 04:14:40;;;;;;;11.73;7.65;;;;;;;;;;2063728;28;22021;-90
2023/08/31 04:15:40;;;;;;;13.13;8.30;;;;;;;;;;2064185;28;20101;-91
2023/08/31 04:16:41;;;;;;;12.93;8.45;;;;;;;;;;2063806;28;20494;-91
2023/08/31 04:17:41;;;;;;;9.88;7.80;;;;;;;;;;2063599;28;20121;-90
2023/08/31 04:18:42;;;;;;;13.30;8.82;;;;;;;;;;2064271;28;20057;-90
2023/08/31 04:19:42;;;;;;;9.43;7.70;;;;;;;;;;2063416;28;20038;-90
2023/08/31 04:20:53;;;;;;;10.18;7.68;;;;;;;;;;2055738;28;20528;-90
2023/08/31 04:21:53;;;;;;;12.80;8.07;;;;;;;;;;2064583;28;20054;-90
2023/08/31 04:22:54;;;;;;;10.98;7.82;;;;;;;;;;2063490;28;20046;-91
2023/08/31 04:23:54;;;;;;;10.75;7.75;;;;;;;;;;2063492;28;20038;-90
2023/08/31 04:24:55;;;;;;;13.77;7.78;;;;;;;;;;2063494;28;20228;-91
2023/08/31 04:25:57;;;;;;;15.98;7.82;;;;;;;;;;2063876;28;20034;-90
2023/08/31 04:26:57;;;;;;;10.73;7.72;;;;;;;;;;2064026;28;20575;-90
2023/08/31 04:28:01;;;;;;;10.32;7.07;;;;;;;;;;2063487;28;20031;-91
2023/08/31 04:29:06;;;;;;;10.32;7.05;;;;;;;;;;2063464;28;20064;-90
2023/08/31 04:30:07;;;;;;;11.60;7.18;;;;;;;;;;2062887;28;20058;-90
2023/08/31 04:31:08;;;;;;;10.10;7.03;;;;;;;;;;2071008;28;20066;-90
2023/08/31 04:32:08;;;;;;;12.70;8.02;;;;;;;;;;2063429;28;20531;-90
2023/08/31 04:33:09;;;;;;;11.30;7.10;;;;;;;;;;2062964;28;20030;-90
2023/08/31 04:34:09;;;;;;;9.18;7.30;;;;;;;;;;2063622;28;20034;-90
2023/08/31 04:35:09;;;;;;;12.05;7.70;;;;;;;;;;1719587;28;10263794;-90
2023/08/31 04:36:10;;;;;;;11.18;6.68;;;;;;;;;;2063540;28;20030;-90
2023/08/31 04:37:10;;;;;;;15.40;7.10;;;;;;;;;;2063430;28;20034;-90
2023/08/31 04:38:11;;;;;;;14.40;7.28;;;;;;;;;;2072148;28;20024;-90
2023/08/31 04:39:11;;;;;;;10.00;6.72;;;;;;;;;;2072309;28;20507;-91
2023/08/31 04:40:12;;;;;;;9.20;6.65;;;;;;;;;;2071477;28;20022;-90
2023/08/31 04:41:12;;;;;;;12.00;6.45;;;;;;;;;;2079459;28;20470;-90
2023/08/31 04:42:13;;;;;;;9.30;6.05;;;;;;;;;;2071248;28;20018;-90
2023/08/31 04:43:13;;;;;;;8.43;6.05;;;;;;;;;;2063024;28;20034;-91
2023/08/31 04:44:14;;;;;;;9.63;6.15;;;;;;;;;;2071395;28;20100;-90
2023/08/31 04:45:14;;;;;;;8.38;6.03;;;;;;;;;;2070754;28;20073;-90
2023/08/31 04:46:15;;;;;;;9.05;6.68;;;;;;;;;;2055403;28;20065;-89
2023/08/31 04:47:15;;;;;;;10.10;6.97;;;;;;;;;;2063124;28;20546;-91
2023/08/31 04:48:16;;;;;;;10.02;6.05;;;;;;;;;;2071057;28;20069;-91
2023/08/31 04:49:16;;;;;;;14.40;6.20;;;;;;;;;;2062928;28;20053;-91
2023/08/31 04:50:17;;;;;;;12.35;6.00;;;;;;;;;;2062730;28;20037;-90
2023/08/31 04:51:39;;;;;;;7.97;6.10;;;;;;;;;;2073690;28;20025;-90
2023/08/31 04:52:39;;;;;;;9.68;5.72;;;;;;;;;;2080107;28;20156;-90
2023/08/31 04:53:39;;;;;;;9.73;6.15;;;;;;;;;;2064757;28;20591;-90
2023/08/31 04:54:40;;;;;;;13.15;6.53;;;;;;;;;;2063145;28;20075;-90
2023/08/31 04:55:40;;;;;;;8.18;5.80;;;;;;;;;;2067212;28;20038;-90
2023/08/31 04:56:41;;;;;;;8.25;5.97;;;;;;;;;;2072803;28;20034;-90
2023/08/31 04:57:41;;;;;;;7.53;5.43;;;;;;;;;;2072935;28;20178;-90
2023/08/31 04:58:41;;;;;;;9.02;6.28;;;;;;;;;;2078113;28;20470;-90
2023/08/31 04:59:42;;;;;;;9.25;5.55;;;;;;;;;;2072252;28;20499;-90
2023/08/31 05:00:46;;;;;;;8.63;6.05;;;;;;;;;;2070216;28;20037;-90
2023/08/31 05:01:47;;;;;;;14.10;6.15;;;;;;;;;;2073216;28;20038;-90
2023/08/31 05:02:47;;;;;;;8.73;6.07;;;;;;;;;;2072501;28;20534;-90
2023/08/31 05:03:47;;;;;;;8.65;5.57;;;;;;;;;;2063248;28;20100;-90
2023/08/31 05:04:48;;;;;;;8.80;5.35;;;;;;;;;;2062906;28;20060;-90
2023/08/31 05:05:48;;;;;;;8.68;5.63;;;;;;;;;;2062837;28;20061;-91
2023/08/31 05:06:49;;;;;;;10.95;5.63;;;;;;;;;;2071362;28;20419;-90
2023/08/31 05:07:52;;;;;;;7.97;5.70;;;;;;;;;;2062296;28;20042;-91
2023/08/31 05:08:52;;;;;;;7.68;4.85;;;;;;;;;;2063328;28;20047;-90
2023/08/31 05:09:53;;;;;;;8.88;5.80;;;;;;;;;;1718679;28;9999863;-91
2023/08/31 05:10:53;;;;;;;11.07;5.65;;;;;;;;;;2071165;28;20088;-91
2023/08/31 05:11:53;;;;;;;8.38;5.28;;;;;;;;;;2071006;28;20135;-92
2023/08/31 05:12:54;;;;;;;9.65;5.22;;;;;;;;;;2062992;28;20129;-91
2023/08/31 05:13:54;;;;;;;11.00;5.90;;;;;;;;;;2071475;28;20029;-91
2023/08/31 05:14:54;;;;;;;8.13;4.93;;;;;;;;;;2063021;28;20077;-90
2023/08/31 05:15:55;;;;;;;8.45;4.85;;;;;;;;;;2063251;28;20067;-91
2023/08/31 05:16:56;;;;;;;7.88;5.65;;;;;;;;;;2071924;28;20038;-90
2023/08/31 05:17:56;;;;;;;10.02;4.88;;;;;;;;;;2071949;28;20132;-90
2023/08/31 05:18:56;;;;;;;8.15;5.38;;;;;;;;;;2062711;28;20444;-90
2023/08/31 05:19:57;;;;;;;10.30;4.78;;;;;;;;;;2063172;28;20038;-91
2023/08/31 05:20:57;;;;;;;8.27;5.00;;;;;;;;;;2071984;28;20049;-91
2023/08/31 05:21:58;;;;;;;9.38;5.03;;;;;;;;;;2063278;28;20125;-90
2023/08/31 05:22:58;;;;;;;9.30;4.90;;;;;;;;;;2063138;28;20121;-91
2023/08/31 05:23:58;;;;;;;10.07;5.03;;;;;;;;;;2063148;28;20471;-90
2023/08/31 05:25:00;;;;;;;8.55;4.93;;;;;;;;;;2079655;28;20077;-90
2023/08/31 05:26:01;;;;;;;10.60;5.15;;;;;;;;;;2079198;28;20479;-90
2023/08/31 05:27:02;;;;;;;8.50;5.40;;;;;;;;;;2062253;28;20046;-91
2023/08/31 05:28:03;;;;;;;9.80;5.10;;;;;;;;;;2062909;28;20113;-90
2023/08/31 05:29:04;;;;;;;9.38;5.40;;;;;;;;;;2072223;28;20115;-91
2023/08/31 05:30:27;;;;;;;11.65;5.22;;;;;;;;;;2072025;28;20042;-90
2023/08/31 05:31:28;;;;;;;10.48;4.88;;;;;;;;;;2063873;28;20448;-90
2023/08/31 05:32:29;;;;;;;9.68;4.85;;;;;;;;;;2071743;28;20052;-91
2023/08/31 05:33:33;;;;;;;7.80;4.97;;;;;;;;;;2062798;28;20038;-90
2023/08/31 05:34:37;;;;;;;8.95;5.30;;;;;;;;;;2063383;28;20061;-91
2023/08/31 05:35:44;;;;;;;8.35;5.00;;;;;;;;;;2071980;28;20393;-90
2023/08/31 05:36:44;;;;;;;8.30;5.25;;;;;;;;;;2072000;28;20050;-90
2023/08/31 05:37:45;;;;;;;7.07;5.15;;;;;;;;;;2063999;28;20605;-90
2023/08/31 05:38:45;;;;;;;9.75;5.30;;;;;;;;;;2069460;28;20100;-89
2023/08/31 05:39:49;;;;;;;10.10;6.25;;;;;;;;;;2077443;28;20096;-90
2023/08/31 05:40:50;;;;;;;10.07;5.57;;;;;;;;;;2078731;28;20050;-90
2023/08/31 05:41:50;;;;;;;10.13;5.57;;;;;;;;;;2071601;28;20046;-90
2023/08/31 05:42:50;;;;;;;9.85;5.95;;;;;;;;;;2063107;28;20042;-91
2023/08/31 05:43:51;;;;;;;10.18;5.97;;;;;;;;;;2054831;28;20541;-91
2023/08/31 05:44:54;;;;;;;10.32;6.32;;;;;;;;;;2063027;28;20074;-90
2023/08/31 05:45:54;;;;;;;7.75;5.65;;;;;;;;;;2070946;28;20072;-91
2023/08/31 05:46:55;;;;;;;11.20;5.53;;;;;;;;;;2071831;28;20447;-91
2023/08/31 05:47:55;;;;;;;8.40;6.05;;;;;;;;;;2071138;28;20367;-90
2023/08/31 05:48:56;;;;;;;18.88;6.97;;;;;;;;;;2062708;28;20125;-91
2023/08/31 05:49:56;;;;;;;14.13;6.97;;;;;;;;;;2062934;28;20049;-91
2023/08/31 05:50:57;;;;;;;13.95;6.35;;;;;;;;;;2071433;28;20092;-91
2023/08/31 05:51:57;;;;;;;11.10;6.93;;;;;;;;;;2062929;28;20133;-91
2023/08/31 05:53:04;;;;;;;11.88;6.68;;;;;;;;;;2062846;28;20034;-91
2023/08/31 05:54:05;;;;;;;9.90;6.38;;;;;;;;;;2069600;28;20046;-90
2023/08/31 05:55:06;;;;;;;13.15;6.38;;;;;;;;;;2071358;28;20046;-91
2023/08/31 05:56:09;;;;;;;11.85;6.80;;;;;;;;;;2062715;28;20041;-91
2023/08/31 05:57:12;;;;;;;12.40;6.50;;;;;;;;;;2063521;28;20524;-91
2023/08/31 05:58:13;;;;;;;11.45;6.78;;;;;;;;;;2079921;28;20060;-91
2023/08/31 05:59:13;;;;;;;9.93;6.13;;;;;;;;;;2079049;28;20099;-90
2023/08/31 06:00:14;;;;;;;11.25;6.57;;;;;;;;;;2062742;28;20567;-90
2023/08/31 06:01:14;;;;;;;11.98;5.95;;;;;;;;;;2062808;28;20038;-91
2023/08/31 06:02:15;;;;;;;10.32;6.03;;;;;;;;;;2062894;28;20030;-90
2023/08/31 06:03:16;;;;;;;9.18;5.45;;;;;;;;;;2072005;28;20184;-90
2023/08/31 06:04:16;;;;;;;10.95;6.20;;;;;;;;;;2070938;28;20050;-91
2023/08/31 06:05:16;;;;;;;8.93;5.03;;;;;;;;;;2070956;28;20030;-91
2023/08/31 06:06:17;;;;;;;6.55;5.18;;;;;;;;;;2076599;28;20026;-91
2023/08/31 06:07:17;;;;;;;7.60;5.00;;;;;;;;;;2078734;28;20076;-90
2023/08/31 06:08:18;;;;;;;9.70;5.65;;;;;;;;;;2062598;28;20034;-91
2023/08/31 06:09:18;;;;;;;10.93;4.85;;;;;;;;;;2060381;28;20046;-91
2023/08/31 06:10:18;;;;;;;7.60;4.43;;;;;;;;;;2062739;28;20435;-90